Terminal Aerodrome Forecast
Issued by NWS

Home | Current Version | Previous Version | Text Only | Print | Product List | Glossary On
Versions: 1 2 3 4 5 6 7 8 9 10 11 12 13 14 15 16 17 18 19
165
FTUS43 KICT 212322
TAFHUT
TAF
KHUT 212322Z 2200/2224 14013G19KT P6SM OVC028
      TEMPO 2200/2204 BKN035
     FM220800 12010KT P6SM OVC015
     FM221700 15014G20KT P6SM OVC025=

USA.gov is the U.S. government's official web portal to all federal, state and local government web resources and services.